Time;durP1;ratioP1;P1;durP2;ratioP2;P2;SDS_P1;SDS_P2;PMS_P1;PMS_P2;Temp;Humidity;BMP_temperature;BMP_pressure;BME280_temperature;BME280_humidity;BME280_pressure;Samples;Min_cycle;Max_cycle;Signal;HPM_P1;HPM_P2
2022/05/16 00:01:25;;;;;;;12.77;4.78;;;13.80;99.90;;;;;;5069453;28;20048;-68
2022/05/16 00:03:50;;;;;;;10.32;4.78;;;13.80;99.90;;;;;;5069783;28;20080;-68
2022/05/16 00:06:16;;;;;;;11.63;3.90;;;13.80;99.90;;;;;;5070887;28;20080;-68
2022/05/16 00:08:42;;;;;;;12.10;5.10;;;13.80;99.90;;;;;;5068878;28;20052;-67
2022/05/16 00:11:07;;;;;;;12.07;4.60;;;13.80;99.90;;;;;;5069503;28;20123;-67
2022/05/16 00:13:33;;;;;;;9.48;4.40;;;13.80;99.90;;;;;;5060277;28;20036;-68
2022/05/16 00:16:00;;;;;;;8.68;4.60;;;13.80;99.90;;;;;;5069837;28;20097;-68
2022/05/16 00:18:26;;;;;;;11.73;4.45;;;13.80;99.90;;;;;;5068366;28;20051;-68
2022/05/16 00:20:51;;;;;;;10.00;4.07;;;13.80;99.90;;;;;;5070171;28;20372;-67
2022/05/16 00:23:17;;;;;;;9.27;4.13;;;13.80;99.90;;;;;;5070741;28;20548;-67
2022/05/16 00:25:42;;;;;;;10.48;4.80;;;13.90;99.90;;;;;;5069192;28;20507;-67
2022/05/16 00:28:08;;;;;;;13.35;4.47;;;13.90;99.90;;;;;;5068808;28;20037;-68
2022/05/16 00:30:34;;;;;;;9.43;4.18;;;13.90;99.90;;;;;;5067029;28;20343;-67
2022/05/16 00:32:59;;;;;;;11.32;4.15;;;13.90;99.90;;;;;;5071396;28;20048;-67
2022/05/16 00:35:25;;;;;;;10.65;4.60;;;13.80;99.90;;;;;;5071525;28;20040;-68
2022/05/16 00:37:50;;;;;;;9.48;4.20;;;13.90;99.90;;;;;;5068652;28;20045;-67
2022/05/16 00:40:17;;;;;;;10.63;4.45;;;13.90;99.90;;;;;;5068638;28;20128;-68
2022/05/16 00:42:43;;;;;;;12.75;4.72;;;13.90;99.90;;;;;;5067911;28;20032;-68
2022/05/16 00:45:12;;;;;;;9.23;4.15;;;13.90;99.90;;;;;;5067336;28;20036;-68
2022/05/16 00:47:37;;;;;;;9.85;4.40;;;13.80;99.90;;;;;;5069207;28;20342;-68
2022/05/16 00:50:05;;;;;;;10.50;4.32;;;13.80;99.90;;;;;;5068948;28;20041;-67
2022/05/16 00:52:39;;;;;;;8.55;4.38;;;13.80;99.90;;;;;;5067612;28;20044;-67
2022/05/16 00:55:33;;;;;;;11.05;4.70;;;13.90;99.90;;;;;;5067230;28;20087;-68
2022/05/16 00:58:04;;;;;;;8.60;4.03;;;13.80;99.90;;;;;;5063742;28;20052;-67
2022/05/16 01:00:36;;;;;;;9.05;4.28;;;13.70;99.90;;;;;;5068064;28;20044;-67
2022/05/16 01:06:08;;;;;;;9.05;4.43;;;13.80;99.90;;;;;;5047679;28;20041;-68
2022/05/16 01:08:39;;;;;;;6.95;3.70;;;13.70;99.90;;;;;;5067286;28;20393;-68
2022/05/16 01:11:09;;;;;;;7.68;3.78;;;13.70;99.90;;;;;;5067869;28;20110;-68
2022/05/16 01:13:35;;;;;;;7.43;3.80;;;13.70;99.90;;;;;;5067222;28;20088;-68
2022/05/16 01:16:03;;;;;;;8.32;3.70;;;13.70;99.90;;;;;;5068985;28;20072;-68
2022/05/16 01:18:29;;;;;;;7.50;3.60;;;13.70;99.90;;;;;;5068390;28;20123;-67
2022/05/16 01:20:57;;;;;;;12.27;4.00;;;13.70;99.90;;;;;;5068374;28;20139;-68
2022/05/16 01:23:25;;;;;;;7.15;3.28;;;14.70;99.90;;;;;;5067155;28;20102;-68
2022/05/16 01:25:52;;;;;;;9.55;3.53;;;13.60;99.90;;;;;;5068563;28;20123;-68
2022/05/16 01:28:20;;;;;;;7.68;3.60;;;13.60;99.90;;;;;;5064735;28;20123;-68
2022/05/16 01:30:48;;;;;;;7.22;3.40;;;13.60;99.90;;;;;;5070643;28;20051;-67
2022/05/16 01:33:15;;;;;;;7.50;3.33;;;13.60;99.90;;;;;;5066949;28;20037;-68
2022/05/16 01:35:41;;;;;;;6.20;3.30;;;13.60;99.90;;;;;;5058078;28;20044;-68
2022/05/16 01:38:19;;;;;;;7.53;3.47;;;13.50;99.90;;;;;;5068738;28;20342;-67
2022/05/16 01:40:49;;;;;;;6.50;3.45;;;13.60;99.90;;;;;;5068426;28;20135;-68
2022/05/16 01:43:16;;;;;;;6.72;3.22;;;13.70;99.90;;;;;;5066968;28;20048;-68
2022/05/16 01:45:43;;;;;;;9.07;3.25;;;13.40;99.90;;;;;;5068495;28;20122;-68
2022/05/16 01:48:11;;;;;;;6.82;3.17;;;13.40;99.90;;;;;;5067278;28;20131;-67
2022/05/16 01:50:37;;;;;;;5.57;2.88;;;13.40;99.90;;;;;;5068050;28;20516;-67
2022/05/16 01:53:03;;;;;;;7.88;3.10;;;13.40;99.90;;;;;;5065158;28;20500;-68
2022/05/16 01:55:29;;;;;;;6.13;3.42;;;13.30;99.90;;;;;;5066963;28;20049;-67
2022/05/16 01:57:54;;;;;;;6.00;3.13;;;13.40;99.90;;;;;;5067242;28;20052;-68
2022/05/16 02:00:21;;;;;;;6.00;3.38;;;13.30;99.90;;;;;;5067926;28;20051;-67
2022/05/16 02:02:47;;;;;;;6.65;3.22;;;13.30;99.90;;;;;;5067668;28;20036;-68
2022/05/16 02:05:15;;;;;;;6.43;2.97;;;13.30;99.90;;;;;;5065592;28;20100;-69
2022/05/16 02:07:41;;;;;;;5.15;3.10;;;13.30;99.90;;;;;;5067274;28;20128;-68
2022/05/16 02:10:09;;;;;;;4.60;2.60;;;13.20;99.90;;;;;;5066844;28;20128;-68
2022/05/16 02:12:35;;;;;;;5.05;2.90;;;13.30;99.90;;;;;;5066937;28;20040;-68
2022/05/16 02:15:05;;;;;;;7.20;2.88;;;13.20;99.90;;;;;;5067497;28;20048;-68
2022/05/16 02:17:31;;;;;;;6.57;3.05;;;13.20;99.90;;;;;;5066391;28;20493;-68
2022/05/16 02:19:56;;;;;;;9.23;3.17;;;13.20;99.90;;;;;;5067948;28;20094;-68
2022/05/16 02:25:07;;;;;;;7.32;2.70;;;13.20;99.90;;;;;;5049550;28;20167;-68
2022/05/16 02:27:32;;;;;;;5.25;2.80;;;13.10;99.90;;;;;;5062778;28;20048;-68
2022/05/16 02:29:58;;;;;;;8.13;2.85;;;13.10;99.90;;;;;;5058953;28;20095;-68
2022/05/16 02:32:24;;;;;;;5.72;2.80;;;13.10;99.90;;;;;;5052591;28;20045;-68
2022/05/16 02:34:50;;;;;;;5.60;2.60;;;13.00;99.90;;;;;;5067478;28;20113;-68
2022/05/16 02:37:16;;;;;;;5.00;2.78;;;13.00;99.90;;;;;;5066387;28;20051;-68
2022/05/16 02:39:44;;;;;;;5.32;2.50;;;13.00;99.90;;;;;;5068130;28;20409;-68
2022/05/16 02:42:11;;;;;;;5.65;2.60;;;13.00;99.90;;;;;;5066181;28;20067;-68
2022/05/16 02:44:38;;;;;;;5.63;2.75;;;13.00;99.90;;;;;;5066859;28;20097;-68
2022/05/16 02:47:05;;;;;;;6.78;2.63;;;13.30;99.90;;;;;;5066749;28;20434;-68
2022/05/16 02:49:31;;;;;;;7.20;2.90;;;13.00;99.90;;;;;;5047522;28;20509;-68
2022/05/16 02:51:57;;;;;;;5.25;2.83;;;13.00;99.90;;;;;;5045174;28;20040;-68
2022/05/16 02:54:23;;;;;;;4.80;2.40;;;12.90;99.90;;;;;;5047210;28;20175;-69
2022/05/16 02:56:49;;;;;;;7.93;2.80;;;12.90;99.90;;;;;;5045547;28;20049;-69
2022/05/16 02:59:16;;;;;;;6.82;2.78;;;12.90;99.90;;;;;;5055223;28;20051;-69
2022/05/16 03:01:41;;;;;;;4.93;2.60;;;12.80;99.90;;;;;;5066089;28;20049;-69
2022/05/16 03:04:07;;;;;;;5.43;2.53;;;12.80;99.90;;;;;;5068279;28;20404;-69
2022/05/16 03:06:34;;;;;;;5.80;2.83;;;12.80;99.90;;;;;;5051940;28;20068;-69
2022/05/16 03:08:59;;;;;;;6.03;2.78;;;12.80;99.90;;;;;;5071193;28;20103;-69
2022/05/16 03:11:25;;;;;;;8.00;2.78;;;12.80;99.90;;;;;;5051977;28;20087;-69
2022/05/16 03:13:51;;;;;;;6.00;2.72;;;12.70;99.90;;;;;;5070050;28;20082;-69
2022/05/16 03:16:17;;;;;;;7.15;2.83;;;12.70;99.90;;;;;;5070463;28;20062;-69
2022/05/16 03:18:43;;;;;;;6.20;2.70;;;12.80;99.90;;;;;;5070346;28;20044;-68
2022/05/16 03:21:09;;;;;;;5.70;2.70;;;12.70;99.90;;;;;;5070702;28;20079;-68
2022/05/16 03:23:35;;;;;;;4.40;2.60;;;13.70;99.90;;;;;;5070903;28;20040;-68
2022/05/16 03:26:01;;;;;;;5.55;2.70;;;12.60;99.90;;;;;;5068535;28;20593;-68
2022/05/16 03:28:26;;;;;;;7.80;3.13;;;12.60;99.90;;;;;;5068803;28;20040;-68
2022/05/16 03:30:55;;;;;;;6.88;2.60;;;12.60;99.90;;;;;;5071118;28;20086;-68
2022/05/16 03:33:21;;;;;;;6.35;2.72;;;12.60;99.90;;;;;;5069452;28;20403;-68
2022/05/16 03:35:47;;;;;;;7.03;3.00;;;12.50;99.90;;;;;;5065934;28;20493;-68
2022/05/16 03:40:42;;;;;;;7.68;3.00;;;12.50;99.90;;;;;;5049952;28;20115;-69
2022/05/16 03:40:58;;;;;;;4.90;2.70;;;12.50;99.90;;;;;;5067808;28;20048;-68
2022/05/16 03:43:24;;;;;;;6.32;2.80;;;13.20;99.90;;;;;;5069923;28;20041;-69
2022/05/16 03:45:49;;;;;;;4.43;2.60;;;12.50;99.90;;;;;;5071239;28;20048;-68
2022/05/16 03:48:15;;;;;;;6.03;2.80;;;12.50;99.90;;;;;;5067881;28;20102;-68
2022/05/16 03:50:41;;;;;;;4.55;2.55;;;12.50;99.90;;;;;;5070722;28;20048;-68
2022/05/16 03:53:07;;;;;;;5.53;2.80;;;12.50;99.90;;;;;;5069556;28;20040;-69
2022/05/16 03:55:32;;;;;;;6.95;2.60;;;13.20;99.90;;;;;;5053962;28;20080;-68
2022/05/16 03:57:58;;;;;;;5.00;2.50;;;12.50;99.90;;;;;;5049681;28;20124;-68
2022/05/16 04:00:24;;;;;;;5.78;2.67;;;12.50;99.90;;;;;;5054238;28;20047;-68
2022/05/16 04:02:51;;;;;;;7.05;2.97;;;12.50;99.90;;;;;;5070602;28;20048;-68
2022/05/16 04:05:20;;;;;;;5.70;2.53;;;12.50;99.90;;;;;;5069869;28;20071;-68
2022/05/16 04:07:47;;;;;;;4.38;2.42;;;12.50;99.90;;;;;;5069418;28;20033;-68
2022/05/16 04:10:13;;;;;;;7.15;2.90;;;13.50;99.90;;;;;;5067889;28;20384;-68
2022/05/16 04:12:39;;;;;;;7.68;2.78;;;12.50;99.90;;;;;;5067386;28;20076;-68
2022/05/16 04:15:07;;;;;;;8.55;3.08;;;12.40;99.90;;;;;;5068543;28;20041;-68
2022/05/16 04:17:33;;;;;;;8.10;3.17;;;12.40;99.90;;;;;;5069181;28;20143;-68
2022/05/16 04:19:58;;;;;;;8.93;3.00;;;12.80;99.90;;;;;;5072320;28;20051;-68
2022/05/16 04:22:24;;;;;;;31.75;5.13;;;12.90;99.90;;;;;;5070533;28;20039;-68
2022/05/16 04:24:50;;;;;;;6.43;2.65;;;12.50;99.90;;;;;;5068554;28;20091;-68
2022/05/16 04:27:15;;;;;;;4.47;2.50;;;12.60;99.90;;;;;;5068453;28;20056;-68
2022/05/16 04:29:41;;;;;;;5.35;2.70;;;12.60;99.90;;;;;;5068653;28;20041;-68
2022/05/16 04:32:06;;;;;;;8.43;2.55;;;12.60;99.90;;;;;;5069545;28;20040;-69
2022/05/16 04:34:32;;;;;;;7.68;2.72;;;12.60;99.90;;;;;;5068501;28;20401;-68
2022/05/16 04:36:58;;;;;;;7.05;2.70;;;12.60;99.90;;;;;;5068610;28;20120;-68
2022/05/16 04:39:24;;;;;;;5.72;2.70;;;12.60;99.90;;;;;;5068765;28;20431;-68
2022/05/16 04:44:38;;;;;;;7.40;2.95;;;12.60;99.90;;;;;;5068354;28;20397;-68
2022/05/16 04:47:07;;;;;;;6.05;2.58;;;12.60;99.90;;;;;;5069090;28;20047;-68
2022/05/16 04:49:34;;;;;;;8.25;2.50;;;12.60;99.90;;;;;;5067582;28;20029;-68
2022/05/16 04:51:59;;;;;;;5.95;2.80;;;12.60;99.90;;;;;;5068008;28;20084;-68
2022/05/16 04:54:26;;;;;;;7.40;2.70;;;12.70;99.90;;;;;;5067227;28;20070;-68
2022/05/16 04:56:53;;;;;;;9.02;3.13;;;12.70;99.90;;;;;;5068279;28;20473;-68
2022/05/16 04:59:20;;;;;;;5.50;2.80;;;12.70;99.90;;;;;;5067488;28;20338;-68
2022/05/16 05:01:47;;;;;;;6.18;3.15;;;12.70;99.90;;;;;;5068747;28;20055;-68
2022/05/16 05:04:12;;;;;;;6.45;2.60;;;12.80;99.90;;;;;;5067939;28;20044;-68
2022/05/16 05:06:39;;;;;;;8.52;2.72;;;12.90;99.90;;;;;;5067787;28;20400;-68
2022/05/16 05:09:05;;;;;;;11.80;2.90;;;12.90;99.90;;;;;;5068843;28;20037;-68
2022/05/16 05:14:33;;;;;;;7.13;2.80;;;13.00;99.90;;;;;;5067372;28;20041;-68
2022/05/16 05:17:11;;;;;;;8.68;2.90;;;13.20;99.90;;;;;;5065599;28;20115;-68
2022/05/16 05:19:40;;;;;;;6.65;2.80;;;13.30;99.90;;;;;;5084231;28;20052;-67
2022/05/16 05:22:06;;;;;;;5.63;2.88;;;13.80;99.90;;;;;;5067790;28;20507;-68
2022/05/16 05:24:32;;;;;;;6.30;2.88;;;13.30;99.90;;;;;;5066960;28;20040;-68
2022/05/16 05:26:58;;;;;;;7.30;3.15;;;13.40;99.90;;;;;;5064545;28;20051;-68
2022/05/16 05:29:24;;;;;;;6.53;3.10;;;13.40;99.90;;;;;;5067084;28;20036;-68
2022/05/16 05:31:50;;;;;;;7.10;2.95;;;13.50;99.90;;;;;;5067640;28;20054;-68
2022/05/16 05:34:16;;;;;;;8.68;3.00;;;14.50;99.90;;;;;;5066147;28;20044;-68
2022/05/16 05:36:43;;;;;;;7.38;2.90;;;13.50;99.90;;;;;;5067212;28;20341;-68
2022/05/16 05:39:13;;;;;;;13.48;3.03;;;14.20;99.90;;;;;;5068134;28;20109;-68
2022/05/16 05:41:38;;;;;;;6.43;3.00;;;13.70;99.90;;;;;;5066777;28;20104;-68
2022/05/16 05:44:04;;;;;;;10.32;3.10;;;13.70;99.90;;;;;;5057378;28;20057;-68
2022/05/16 05:46:37;;;;;;;8.65;3.15;;;13.60;99.90;;;;;;5060270;28;20346;-68
2022/05/16 05:49:04;;;;;;;7.45;3.03;;;13.90;99.90;;;;;;5066513;28;20041;-67
2022/05/16 05:51:31;;;;;;;5.43;2.90;;;13.90;99.90;;;;;;5067617;28;20141;-67
2022/05/16 05:53:56;;;;;;;7.43;3.10;;;13.90;99.90;;;;;;5048841;28;20123;-68
2022/05/16 05:56:22;;;;;;;6.30;2.85;;;13.90;99.90;;;;;;5066259;28;20163;-67
2022/05/16 05:58:48;;;;;;;8.20;2.60;;;13.90;99.90;;;;;;5067376;28;20489;-67
2022/05/16 06:01:13;;;;;;;7.22;2.95;;;13.90;99.90;;;;;;5066629;28;20051;-68
2022/05/16 06:03:39;;;;;;;10.38;3.30;;;14.00;99.90;;;;;;5067743;28;20036;-68
2022/05/16 06:06:05;;;;;;;5.28;2.92;;;14.50;99.90;;;;;;5067381;28;20087;-68
2022/05/16 06:08:30;;;;;;;9.85;3.17;;;13.90;99.90;;;;;;5066837;28;20723;-68
2022/05/16 06:10:56;;;;;;;8.00;3.08;;;13.90;99.90;;;;;;5068729;28;20140;-68
2022/05/16 06:13:21;;;;;;;4.85;2.72;;;14.00;99.90;;;;;;5066808;28;20453;-69
2022/05/16 06:15:47;;;;;;;9.77;3.17;;;14.10;99.90;;;;;;5067336;28;20043;-69
2022/05/16 06:18:13;;;;;;;7.85;3.17;;;14.10;99.90;;;;;;5065476;28;20098;-69
2022/05/16 06:20:39;;;;;;;8.63;3.30;;;14.20;99.90;;;;;;5068397;28;20476;-68
2022/05/16 06:23:05;;;;;;;10.88;3.08;;;14.20;99.90;;;;;;5067253;28;20036;-69
2022/05/16 06:25:31;;;;;;;9.95;2.90;;;14.20;99.90;;;;;;5066779;28;20047;-68
2022/05/16 06:27:57;;;;;;;6.93;2.92;;;14.30;99.90;;;;;;5067026;28;20048;-67
2022/05/16 06:30:24;;;;;;;7.28;3.00;;;14.30;99.90;;;;;;5065889;28;20071;-68
2022/05/16 06:32:49;;;;;;;9.82;3.13;;;14.30;99.90;;;;;;5062891;28;20986;-68
2022/05/16 06:35:16;;;;;;;8.05;3.40;;;14.80;99.90;;;;;;5061671;28;20094;-68
2022/05/16 06:37:42;;;;;;;6.90;3.03;;;14.50;99.90;;;;;;5066919;28;20047;-69
2022/05/16 06:40:10;;;;;;;10.52;3.35;;;14.60;99.90;;;;;;5071043;28;20051;-69
2022/05/16 06:42:36;;;;;;;13.23;2.90;;;14.60;99.90;;;;;;5069262;28;20044;-68
2022/05/16 06:45:03;;;;;;;12.38;3.33;;;14.70;99.90;;;;;;5069747;28;20076;-70
2022/05/16 06:47:28;;;;;;;6.55;3.08;;;14.80;99.90;;;;;;5070117;28;20044;-69
2022/05/16 06:49:54;;;;;;;7.72;2.97;;;15.00;99.90;;;;;;5071350;28;20055;-68
2022/05/16 06:52:21;;;;;;;5.70;2.78;;;15.20;99.90;;;;;;5068595;28;20044;-69
2022/05/16 06:54:47;;;;;;;8.05;3.05;;;15.20;99.90;;;;;;5071534;28;20052;-70
2022/05/16 06:57:13;;;;;;;7.20;3.03;;;15.40;99.90;;;;;;5068195;28;20102;-68
2022/05/16 06:59:38;;;;;;;9.02;3.10;;;15.50;99.90;;;;;;5070378;28;20071;-68
2022/05/16 07:02:06;;;;;;;6.72;3.00;;;16.50;99.90;;;;;;5070081;28;20147;-68
2022/05/16 07:04:32;;;;;;;11.70;2.95;;;15.70;99.90;;;;;;5054951;28;20048;-68
2022/05/16 07:06:57;;;;;;;7.53;2.75;;;15.80;99.90;;;;;;5069475;28;20118;-68
2022/05/16 07:09:23;;;;;;;10.15;3.35;;;16.00;99.90;;;;;;5069960;28;20063;-68
2022/05/16 07:11:49;;;;;;;9.45;3.10;;;16.20;99.90;;;;;;5070404;28;20102;-68
2022/05/16 07:14:15;;;;;;;10.75;3.22;;;16.30;99.90;;;;;;5069797;28;20048;-68
2022/05/16 07:16:41;;;;;;;9.82;3.28;;;16.50;99.90;;;;;;5069937;28;20057;-68
2022/05/16 07:19:07;;;;;;;8.80;3.08;;;16.60;99.90;;;;;;5068125;28;20076;-68
2022/05/16 07:21:33;;;;;;;8.95;2.95;;;16.70;99.90;;;;;;5069153;28;20120;-68
2022/05/16 07:23:59;;;;;;;11.30;3.20;;;16.70;99.90;;;;;;5067526;28;20044;-68
2022/05/16 07:29:09;;;;;;;9.45;3.28;;;16.70;99.90;;;;;;5068507;28;20056;-68
2022/05/16 07:31:36;;;;;;;9.88;3.30;;;16.80;99.90;;;;;;5068885;28;20041;-68
2022/05/16 07:34:02;;;;;;;10.13;3.63;;;16.90;99.90;;;;;;5070953;28;20137;-68
2022/05/16 07:36:28;;;;;;;12.02;3.45;;;17.00;99.90;;;;;;5068154;28;20388;-68
2022/05/16 07:38:53;;;;;;;7.38;3.20;;;17.40;99.90;;;;;;5070835;28;20069;-68
2022/05/16 07:41:19;;;;;;;8.32;3.00;;;17.30;99.90;;;;;;5069486;28;20084;-68
2022/05/16 07:43:44;;;;;;;6.95;3.00;;;17.50;99.90;;;;;;5068332;28;20047;-68
2022/05/16 07:46:10;;;;;;;7.15;2.88;;;17.60;99.90;;;;;;5068072;28;20052;-68
2022/05/16 07:48:36;;;;;;;9.30;3.08;;;17.80;99.90;;;;;;5070093;28;20144;-68
2022/05/16 07:51:03;;;;;;;9.63;3.28;;;17.90;99.90;;;;;;5069361;28;20102;-68
2022/05/16 07:53:29;;;;;;;9.20;2.90;;;18.00;99.90;;;;;;5071358;28;20053;-69
2022/05/16 07:55:56;;;;;;;11.60;3.35;;;18.20;99.90;;;;;;5053672;28;20064;-69
2022/05/16 07:58:25;;;;;;;8.85;3.28;;;18.30;99.90;;;;;;5048174;28;20556;-69
2022/05/16 08:00:52;;;;;;;12.82;3.33;;;18.50;99.90;;;;;;5062940;28;20055;-68
2022/05/16 08:03:20;;;;;;;9.57;3.05;;;18.70;99.90;;;;;;5068894;28;20484;-68
2022/05/16 08:05:46;;;;;;;9.15;3.28;;;18.80;99.90;;;;;;5064408;28;20098;-68
2022/05/16 08:10:58;;;;;;;7.55;2.90;;;19.10;99.90;;;;;;5069801;28;20076;-68
2022/05/16 08:13:27;;;;;;;6.93;2.70;;;19.30;99.90;;;;;;5064731;28;20083;-68
2022/05/16 08:15:53;;;;;;;8.10;3.20;;;19.40;99.90;;;;;;5068271;28;20055;-68
2022/05/16 08:18:19;;;;;;;11.77;3.38;;;19.60;99.90;;;;;;5071501;28;20044;-68
2022/05/16 08:20:46;;;;;;;11.40;3.15;;;19.70;99.90;;;;;;5072106;28;20091;-68
2022/05/16 08:23:14;;;;;;;7.97;2.90;;;19.80;99.90;;;;;;5068626;28;20119;-69
2022/05/16 08:25:40;;;;;;;9.50;3.10;;;19.90;99.90;;;;;;5067492;28;20328;-68
2022/05/16 08:28:07;;;;;;;8.80;2.90;;;20.20;99.90;;;;;;5067910;28;20069;-68
2022/05/16 08:30:33;;;;;;;7.72;3.00;;;20.20;99.90;;;;;;5068797;28;20032;-68
2022/05/16 08:33:01;;;;;;;10.27;3.00;;;20.30;99.90;;;;;;5069029;28;20063;-70
2022/05/16 08:35:27;;;;;;;10.70;2.83;;;20.40;99.90;;;;;;5068108;28;20540;-68
2022/05/16 08:40:56;;;;;;;;;;;20.70;99.90;;;;;;5071059;28;20071;-68
2022/05/16 08:43:51;;;;;;;8.43;3.05;;;20.90;99.90;;;;;;5067575;28;20369;-68
2022/05/16 08:46:33;;;;;;;13.02;3.28;;;21.10;99.90;;;;;;5067536;28;20080;-68
2022/05/16 08:49:08;;;;;;;7.85;2.70;;;21.30;99.90;;;;;;5068069;28;20345;-68
2022/05/16 08:51:35;;;;;;;7.60;2.67;;;21.50;99.90;;;;;;5067972;28;20048;-68
2022/05/16 08:54:28;;;;;;;12.40;2.97;;;21.70;99.90;;;;;;5067382;28;20274;-67
2022/05/16 08:56:57;;;;;;;9.10;2.97;;;21.90;99.90;;;;;;5067946;28;20194;-68
2022/05/16 08:59:26;;;;;;;8.25;2.70;;;22.10;99.90;;;;;;5067694;28;20733;-68
2022/05/16 09:01:55;;;;;;;10.13;2.83;;;23.10;99.90;;;;;;5067261;28;20048;-68
2022/05/16 09:04:41;;;;;;;10.30;3.25;;;22.60;99.90;;;;;;5067720;28;20040;-68
2022/05/16 09:07:16;;;;;;;8.77;2.97;;;22.90;99.90;;;;;;5066400;28;20052;-69
2022/05/16 09:10:02;;;;;;;10.18;2.75;;;23.00;99.90;;;;;;5067304;28;20056;-69
2022/05/16 09:12:35;;;;;;;9.18;3.20;;;23.20;99.80;;;;;;5065558;28;20076;-67
2022/05/16 09:15:16;;;;;;;14.55;3.25;;;23.40;99.50;;;;;;5069022;28;20059;-67
2022/05/16 09:17:57;;;;;;;6.55;2.70;;;23.50;99.40;;;;;;5066203;28;20094;-68
2022/05/16 09:20:41;;;;;;;9.52;2.78;;;23.50;99.10;;;;;;5067393;28;20532;-68
2022/05/16 09:23:32;;;;;;;8.07;2.83;;;23.60;99.00;;;;;;5055605;28;20448;-69
2022/05/16 09:26:21;;;;;;;9.30;2.83;;;23.60;97.90;;;;;;5050490;28;20382;-69
2022/05/16 09:28:54;;;;;;;12.35;3.10;;;23.50;98.30;;;;;;5066602;28;20050;-70
2022/05/16 09:31:28;;;;;;;9.90;2.67;;;24.10;98.00;;;;;;5068150;28;20047;-68
2022/05/16 09:33:56;;;;;;;11.40;2.90;;;23.40;97.80;;;;;;5066041;28;20048;-69
2022/05/16 09:36:34;;;;;;;11.15;3.10;;;23.50;97.80;;;;;;5052562;28;20048;-69
2022/05/16 09:39:00;;;;;;;8.77;2.83;;;23.60;98.20;;;;;;5067570;28;20040;-69
2022/05/16 09:41:54;;;;;;;6.57;2.70;;;23.70;98.10;;;;;;5069070;28;20063;-69
2022/05/16 09:44:25;;;;;;;11.02;3.05;;;23.90;97.70;;;;;;5068139;28;20049;-70
2022/05/16 09:47:11;;;;;;;10.07;2.78;;;24.00;97.70;;;;;;5068203;28;20333;-69
2022/05/16 09:49:37;;;;;;;;;;;24.10;96.90;;;;;;5068477;28;20509;-69
2022/05/16 09:52:03;;;;;;;10.95;3.33;;;24.40;97.00;;;;;;5065879;28;19935;-68
2022/05/16 09:54:35;;;;;;;9.15;3.08;;;24.80;96.20;;;;;;5065991;28;20515;-69
2022/05/16 09:57:04;;;;;;;10.73;2.83;;;25.10;95.80;;;;;;5066586;28;20440;-69
2022/05/16 09:59:34;;;;;;;10.23;2.60;;;25.30;95.10;;;;;;5047318;28;20053;-69
2022/05/16 10:02:09;;;;;;;11.32;2.63;;;25.40;95.00;;;;;;5067541;28;20056;-69
2022/05/16 10:04:42;;;;;;;16.20;3.08;;;25.70;94.80;;;;;;5067390;28;20079;-69
2022/05/16 10:07:08;;;;;;;6.20;2.90;;;26.10;94.60;;;;;;5065919;28;20048;-68
2022/05/16 10:09:39;;;;;;;9.98;2.83;;;26.10;94.10;;;;;;5066893;28;20491;-70
2022/05/16 10:12:08;;;;;;;9.02;3.20;;;26.10;94.00;;;;;;5065690;28;20075;-69
2022/05/16 10:14:37;;;;;;;9.45;2.88;;;26.20;93.80;;;;;;5066363;28;20056;-69
2022/05/16 10:17:05;;;;;;;10.98;2.90;;;26.20;93.10;;;;;;5066347;28;20037;-69
2022/05/16 10:19:32;;;;;;;14.45;2.95;;;26.30;93.00;;;;;;5066200;28;20047;-69
2022/05/16 10:22:05;;;;;;;13.00;3.17;;;26.70;93.00;;;;;;5065820;28;20507;-70
2022/05/16 10:24:35;;;;;;;14.95;2.90;;;27.30;92.40;;;;;;5066908;28;20391;-70
2022/05/16 10:27:11;;;;;;;8.07;3.30;;;27.90;92.20;;;;;;5066198;28;20045;-70
2022/05/16 10:29:51;;;;;;;8.02;3.03;;;28.70;91.20;;;;;;5082934;28;20493;-69
2022/05/16 10:35:26;;;;;;;10.02;3.05;;;29.20;88.10;;;;;;5069456;28;20048;-70
2022/05/16 10:37:54;;;;;;;8.77;3.13;;;29.80;86.40;;;;;;5066687;28;20401;-70
2022/05/16 10:40:36;;;;;;;7.10;2.60;;;30.60;83.30;;;;;;5066220;28;20059;-70
2022/05/16 10:43:10;;;;;;;14.95;3.10;;;31.10;82.20;;;;;;5065111;28;20048;-70
2022/05/16 10:45:40;;;;;;;9.75;3.00;;;31.00;79.40;;;;;;5066782;28;20052;-70
2022/05/16 10:48:24;;;;;;;7.53;2.67;;;31.20;78.30;;;;;;5066321;28;20047;-70
2022/05/16 10:50:59;;;;;;;8.88;2.70;;;31.90;77.30;;;;;;5067592;28;20053;-68
2022/05/16 10:53:32;;;;;;;8.25;3.17;;;33.60;76.60;;;;;;5066591;28;20044;-69
2022/05/16 10:56:15;;;;;;;7.60;3.05;;;35.00;71.70;;;;;;5066089;28;20075;-69
2022/05/16 10:58:53;;;;;;;8.38;2.70;;;35.10;68.90;;;;;;5066204;28;20182;-70
2022/05/16 11:01:25;;;;;;;8.65;2.65;;;34.40;66.30;;;;;;5054751;28;20048;-69
2022/05/16 11:04:09;;;;;;;8.63;2.55;;;33.50;65.70;;;;;;5049181;28;20048;-69
2022/05/16 11:07:07;;;;;;;7.90;2.45;;;32.90;65.50;;;;;;5060051;28;20448;-69
2022/05/16 11:10:06;;;;;;;7.80;2.38;;;32.20;66.10;;;;;;5064393;28;20048;-67
2022/05/16 11:12:41;;;;;;;8.65;2.63;;;31.60;67.00;;;;;;5058988;28;20394;-69
2022/05/16 11:15:20;;;;;;;5.90;2.35;;;31.60;66.50;;;;;;5067689;28;20041;-69
2022/05/16 11:18:05;;;;;;;8.60;2.60;;;31.00;66.60;;;;;;5067772;28;20084;-69
2022/05/16 11:21:02;;;;;;;17.27;2.67;;;30.30;67.60;;;;;;5061640;28;20084;-67
2022/05/16 11:23:48;;;;;;;10.18;2.72;;;29.50;68.90;;;;;;5060445;28;20049;-67
2022/05/16 11:26:20;;;;;;;7.93;2.55;;;28.80;69.50;;;;;;5045290;28;20469;-67
2022/05/16 11:31:46;;;;;;;8.77;2.83;;;27.70;71.30;;;;;;5065406;28;20044;-67
2022/05/16 11:34:20;;;;;;;9.18;2.60;;;27.20;72.10;;;;;;5050553;28;20412;-66
2022/05/16 11:36:53;;;;;;;11.95;2.78;;;26.90;72.70;;;;;;5056043;28;20044;-67
2022/05/16 11:39:26;;;;;;;8.80;2.72;;;26.60;73.60;;;;;;5069072;28;20064;-66
2022/05/16 11:42:09;;;;;;;9.95;2.60;;;26.40;74.80;;;;;;5066055;28;20793;-66
2022/05/16 11:44:44;;;;;;;8.15;2.95;;;26.20;76.00;;;;;;5060644;28;20418;-66
2022/05/16 11:47:16;;;;;;;12.60;3.03;;;26.10;77.00;;;;;;5066821;28;20392;-66
2022/05/16 11:50:28;;;;;;;6.60;2.58;;;26.00;78.10;;;;;;5065628;28;20044;-66
2022/05/16 11:53:11;;;;;;;9.27;2.70;;;26.00;79.60;;;;;;5053093;28;20044;-66
2022/05/16 12:01:35;;;;;;;10.15;2.75;;;25.90;80.40;;;;;;5066681;28;20045;-66
2022/05/16 12:04:13;;;;;;;14.73;2.97;;;25.80;80.90;;;;;;5064957;28;20052;-65
2022/05/16 12:06:44;;;;;;;9.07;2.70;;;25.70;81.90;;;;;;5069152;28;20039;-66
2022/05/16 12:09:19;;;;;;;13.35;3.45;;;25.70;82.50;;;;;;5068478;28;20098;-66
2022/05/16 12:12:07;;;;;;;7.10;2.80;;;25.70;83.60;;;;;;5068333;28;20048;-66
2022/05/16 12:14:34;;;;;;;8.52;2.88;;;25.70;85.00;;;;;;5067334;28;20051;-66
2022/05/16 12:17:19;;;;;;;10.30;2.97;;;25.70;86.80;;;;;;5067928;28;20054;-66
2022/05/16 12:19:48;;;;;;;13.32;3.03;;;25.70;88.20;;;;;;5068645;28;20048;-67
2022/05/16 12:22:42;;;;;;;9.88;3.28;;;25.90;89.90;;;;;;5068646;28;20507;-66
2022/05/16 12:25:28;;;;;;;9.93;3.28;;;26.20;90.30;;;;;;5067881;28;20048;-68
2022/05/16 12:28:12;;;;;;;10.57;3.47;;;26.80;90.50;;;;;;5068347;28;20098;-67
2022/05/16 12:30:37;;;;;;;11.85;3.22;;;26.60;90.50;;;;;;5069667;28;20389;-68
2022/05/16 12:33:05;;;;;;;8.75;3.42;;;26.60;90.50;;;;;;5070616;28;20051;-67
2022/05/16 12:35:38;;;;;;;8.77;3.13;;;26.60;90.80;;;;;;5067122;28;20045;-67
2022/05/16 12:38:05;;;;;;;10.70;3.47;;;26.40;91.10;;;;;;5067622;28;20160;-68
2022/05/16 12:40:38;;;;;;;9.80;3.22;;;26.20;91.60;;;;;;5067279;28;20068;-68
2022/05/16 12:43:15;;;;;;;9.68;3.30;;;26.00;91.70;;;;;;5082872;28;20040;-68
2022/05/16 12:45:54;;;;;;;8.05;2.95;;;25.70;92.30;;;;;;5089231;28;20075;-67
2022/05/16 12:48:44;;;;;;;10.13;3.38;;;25.50;92.90;;;;;;5087422;28;20052;-67
2022/05/16 12:51:37;;;;;;;12.18;3.40;;;25.30;93.70;;;;;;5086047;28;20138;-67
2022/05/16 12:54:23;;;;;;;12.02;3.60;;;25.10;94.60;;;;;;5067378;28;20056;-67
2022/05/16 12:56:52;;;;;;;14.25;3.85;;;25.00;95.40;;;;;;5066177;28;20135;-68
2022/05/16 12:59:42;;;;;;;10.50;3.70;;;24.90;96.40;;;;;;5066777;28;20036;-68
2022/05/16 13:02:26;;;;;;;13.20;3.97;;;24.80;96.80;;;;;;5058252;28;20052;-67
2022/05/16 13:05:20;;;;;;;10.13;3.50;;;24.80;97.30;;;;;;5052924;28;20123;-67
2022/05/16 13:08:16;;;;;;;12.07;3.80;;;24.90;97.70;;;;;;5068533;28;20444;-68
2022/05/16 13:10:48;;;;;;;15.77;4.35;;;24.90;97.90;;;;;;5067014;28;20422;-68
2022/05/16 13:13:44;;;;;;;11.95;3.80;;;25.10;97.90;;;;;;5066552;28;20040;-68
2022/05/16 13:16:21;;;;;;;18.23;3.83;;;25.20;97.70;;;;;;5047883;28;20507;-68
2022/05/16 13:19:00;;;;;;;10.35;3.53;;;25.40;97.50;;;;;;5064657;28;20064;-68
2022/05/16 13:21:54;;;;;;;11.88;4.03;;;25.50;97.30;;;;;;5064012;28;20045;-68
2022/05/16 13:24:22;;;;;;;10.73;3.72;;;25.70;97.10;;;;;;5066787;28;20123;-67
2022/05/16 13:29:39;;;;;;;8.52;3.20;;;25.80;96.80;;;;;;5064213;28;20405;-67
2022/05/16 13:32:10;;;;;;;11.02;3.97;;;25.80;96.90;;;;;;5066970;28;20040;-67
2022/05/16 13:34:44;;;;;;;15.88;3.92;;;25.70;97.10;;;;;;5065612;28;20194;-67
2022/05/16 13:37:11;;;;;;;12.43;4.00;;;25.70;97.20;;;;;;5065900;28;20507;-67